MST,Max TemperatureF,Mean TemperatureF,Min TemperatureF,Max Dew PointF,MeanDew PointF,Min DewpointF,Max Humidity, Mean Humidity, Min Humidity, Max Sea Level PressureIn, Mean Sea Level PressureIn, Min Sea Level PressureIn, Max VisibilityMiles, Mean VisibilityMiles, Min VisibilityMiles, Max Wind SpeedMPH, Mean Wind SpeedMPH, Max Gust SpeedMPH,PrecipitationIn, CloudCover, Events, WindDirDegrees
2014-1-1,34,23,11,24,18,9,96,84,72,30.45,30.39,30.26,10,9,2,6,1,8,0.00,1,,271
2014-1-2,36,27,17,32,26,16,100,91,82,30.40,30.17,29.74,10,9,2,8,1,10,0.05,8,Rain-Snow,255
2014-1-3,41,34,27,34,29,22,96,74,52,30.05,29.83,29.55,10,6,0,20,8,24,0.25,8,Fog-Rain-Snow,229
2014-1-4,28,18,8,27,18,7,100,84,68,30.38,30.19,29.98,10,9,1,23,6,28,T,7,Snow,29
2014-1-5,16,11,5,7,1,-4,73,65,57,30.78,30.68,30.42,10,10,10,29,11,36,0.00,5,,20
2014-1-6,18,7,-5,7,1,-8,95,78,61,30.72,30.57,30.34,10,10,10,5,0,5,0.00,0,,290
2014-1-7,24,18,12,19,14,7,92,77,62,30.32,30.18,30.01,10,7,1,5,0,5,0.06,7,Snow,280
2014-1-8,27,24,21,25,21,19,96,89,81,30.13,29.97,29.74,8,3,1,3,0,5,0.18,8,Snow,-1
2014-1-9,39,33,27,32,26,21,96,80,63,29.85,29.74,29.63,10,8,2,28,9,33,0.02,7,Rain-Snow,198
2014-1-10,39,35,30,31,29,26,92,78,64,29.93,29.73,29.63,10,6,1,16,9,18,0.11,8,Snow,168
2014-1-11,43,39,35,35,30,24,89,69,49,29.85,29.52,29.34,10,10,10,33,15,43,0.06,7,Rain,175
2014-1-12,38,36,33,29,26,22,75,64,52,29.96,29.75,29.39,10,10,10,17,10,22,T,8,,196
2014-1-13,48,42,35,31,30,27,76,61,45,30.34,30.07,29.91,10,10,10,24,12,72,T,7,Rain,208
2014-1-14,40,32,24,32,29,22,92,81,70,30.58,30.51,30.38,10,10,10,13,6,14,T,5,,178
2014-1-15,42,33,24,30,27,22,92,76,60,30.49,30.40,30.34,10,10,10,14,6,17,0.00,0,,193
2014-1-16,44,34,23,29,25,21,92,73,53,30.58,30.50,30.43,10,10,10,5,0,5,0.00,0,,50
2014-1-17,41,30,18,27,21,15,92,74,55,30.42,30.39,30.35,10,10,9,6,0,6,0.00,0,,270
2014-1-18,37,26,15,27,21,13,92,76,59,30.48,30.32,30.12,10,8,0,6,1,7,0.00,2,Fog,313
2014-1-19,29,23,17,27,23,15,100,92,84,30.42,30.19,30.07,10,3,0,7,1,8,T,4,Fog-Snow,284
2014-1-20,33,23,12,25,19,10,92,81,69,30.63,30.53,30.42,10,8,0,6,0,7,0.00,2,Fog,320
2014-1-21,26,24,22,25,22,19,100,94,88,30.55,30.42,30.29,6,2,0,6,1,7,T,8,Fog-Snow,300
2014-1-22,32,24,16,26,21,14,100,89,78,30.56,30.35,30.22,9,3,0,5,0,6,0.12,7,Fog-Snow,-1
2014-1-23,32,27,22,27,24,21,100,89,78,30.63,30.56,30.44,10,6,2,6,0,7,T,8,Snow,300
2014-1-24,34,32,29,29,28,27,100,88,75,30.65,30.57,30.47,10,8,3,5,1,16,T,8,Snow,202
2014-1-25,34,32,30,29,28,27,92,84,75,30.56,30.40,30.25,10,9,3,10,2,13,T,8,Snow,169
2014-1-26,34,30,26,29,24,16,100,78,56,30.34,30.28,30.18,10,7,0,20,5,25,T,8,Fog-Snow,9
2014-1-27,35,22,9,17,11,6,92,67,41,30.50,30.42,30.33,10,10,9,7,1,8,0.00,1,,317
2014-1-28,30,20,9,22,15,8,92,75,57,30.45,30.34,30.16,10,10,10,6,1,7,0.00,7,,235
2014-1-29,29,26,23,27,23,19,100,88,75,30.13,29.69,29.57,10,3,0,18,1,25,0.46,8,Fog-Snow,164
2014-1-30,29,20,11,18,12,9,80,71,62,30.01,29.90,29.70,10,6,1,30,16,37,0.04,8,Snow,13
2014-1-31,21,12,2,14,9,0,96,82,68,30.15,30.06,30.00,10,9,4,6,1,6,T,8,Snow,349